Time;durP1;ratioP1;P1;durP2;ratioP2;P2;SDS_P1;SDS_P2;PMS_P1;PMS_P2;Temp;Humidity;BMP_temperature;BMP_pressure;BME280_temperature;BME280_humidity;BME280_pressure;Samples;Min_cycle;Max_cycle;Signal;HPM_P1;HPM_P2
2023/06/17 00:02:19;;;;;;;52.38;25.92;;;;;;;-144.73;100.00;54354.34;5034570;28;20029;-69
2023/06/17 00:04:44;;;;;;;55.53;29.77;;;;;;;-144.73;100.00;54342.03;5035187;28;20032;-69
2023/06/17 00:07:10;;;;;;;53.05;25.50;;;;;;;-144.73;100.00;54335.88;5034469;28;20033;-69
2023/06/17 00:09:36;;;;;;;51.03;25.23;;;;;;;-144.73;100.00;54311.22;5034594;28;20027;-68
2023/06/17 00:12:02;;;;;;;55.72;27.23;;;;;;;-144.73;100.00;54313.28;5033501;28;20033;-67
2023/06/17 00:14:28;;;;;;;52.35;28.02;;;;;;;-144.73;100.00;54331.75;5042800;28;20025;-68
2023/06/17 00:16:53;;;;;;;62.38;30.02;;;;;;;-144.73;100.00;54311.22;5051332;28;20044;-69
2023/06/17 00:19:20;;;;;;;49.80;27.65;;;;;;;-144.73;100.00;54350.22;5051554;28;20025;-68
2023/06/17 00:21:49;;;;;;;57.20;30.92;;;;;;;-144.73;100.00;54317.38;5048071;28;20035;-68
2023/06/17 00:24:16;;;;;;;51.78;29.20;;;;;;;-144.73;100.00;54309.19;5034764;28;20029;-70
2023/06/17 00:26:41;;;;;;;71.45;34.80;;;;;;;-144.73;100.00;54354.34;5034752;28;20032;-71
2023/06/17 00:29:07;;;;;;;70.15;31.95;;;;;;;-144.73;100.00;54354.34;5036620;28;20029;-69
2023/06/17 00:31:32;;;;;;;61.25;31.42;;;;;;;-144.73;100.00;54296.88;5034406;28;20107;-68
2023/06/17 00:33:58;;;;;;;64.90;33.35;;;;;;;-144.73;100.00;54300.97;5052312;28;20047;-68
2023/06/17 00:36:23;;;;;;;73.13;37.15;;;;;;;-144.73;100.00;54303.03;5045648;28;20024;-68
2023/06/17 00:38:50;;;;;;;63.92;36.28;;;;;;;-144.73;100.00;54280.44;5054186;28;20029;-69
2023/06/17 00:41:15;;;;;;;76.40;34.58;;;;;;;-144.73;100.00;54309.19;5046687;28;20013;-68
2023/06/17 00:43:41;;;;;;;64.72;33.88;;;;;;;-144.73;100.00;54276.34;5034204;28;20037;-68
2023/06/17 00:46:06;;;;;;;67.15;34.13;;;;;;;-144.73;100.00;54370.75;5034445;28;20108;-67
2023/06/17 00:48:32;;;;;;;69.20;32.03;;;;;;;-144.73;100.00;54350.22;5033276;28;20033;-68
2023/06/17 00:51:01;;;;;;;72.63;35.63;;;;;;;-144.73;100.00;54321.50;5034336;28;20025;-68
2023/06/17 00:53:30;;;;;;;67.45;35.28;;;;;;;-144.73;100.00;54317.38;5033378;28;20090;-68
2023/06/17 00:55:58;;;;;;;64.25;32.47;;;;;;;-144.73;100.00;54300.97;5033650;28;20040;-68
2023/06/17 00:58:25;;;;;;;58.13;32.60;;;;;;;-144.73;100.00;54325.59;5048883;28;20037;-68
2023/06/17 01:00:50;;;;;;;73.03;35.08;;;;;;;-144.73;100.00;54342.03;5050310;28;20108;-68
2023/06/17 01:03:17;;;;;;;61.90;34.97;;;;;;;-144.73;100.00;54325.59;5049962;28;20152;-68
2023/06/17 01:05:45;;;;;;;68.95;36.67;;;;;;;-144.73;100.00;54325.59;5051086;28;20108;-68
2023/06/17 01:08:25;;;;;;;59.25;34.17;;;;;;;-144.73;100.00;54313.28;5050001;28;20095;-68
2023/06/17 01:11:16;;;;;;;61.83;36.38;;;;;;;-144.73;100.00;54309.19;5050423;28;20041;-68
2023/06/17 01:13:43;;;;;;;61.90;36.33;;;;;;;-144.73;100.00;54323.53;5018282;28;20128;-68
2023/06/17 01:16:09;;;;;;;61.83;33.33;;;;;;;-144.73;100.00;54337.91;5047107;28;20103;-67
2023/06/17 01:18:36;;;;;;;58.63;32.25;;;;;;;-144.73;100.00;54290.72;5049832;28;20029;-68
2023/06/17 01:21:03;;;;;;;66.20;34.92;;;;;;;-144.73;100.00;54325.59;5043498;28;20048;-69
2023/06/17 01:23:37;;;;;;;70.95;36.92;;;;;;;-144.73;100.00;54321.50;5033025;28;20037;-67
2023/06/17 01:26:04;;;;;;;73.70;37.30;;;;;;;-144.73;100.00;54362.53;5038546;28;20017;-68
2023/06/17 01:28:31;;;;;;;74.07;39.33;;;;;;;-144.73;100.00;54342.03;5033474;28;20041;-69
2023/06/17 01:30:57;;;;;;;78.57;38.63;;;;;;;-144.73;100.00;54280.44;5045677;28;20086;-67
2023/06/17 01:33:24;;;;;;;84.88;44.13;;;;;;;-144.73;100.00;54329.72;5033427;28;20124;-68
2023/06/17 01:36:12;;;;;;;99.15;42.17;;;;;;;-144.73;100.00;54329.72;5033659;28;20021;-70
2023/06/17 01:38:48;;;;;;;68.45;35.53;;;;;;;-144.73;100.00;54333.81;5037489;28;20045;-68
2023/06/17 01:41:26;;;;;;;83.28;39.35;;;;;;;-144.73;100.00;54321.50;5037670;28;20017;-69
2023/06/17 01:43:53;;;;;;;76.43;41.10;;;;;;;-144.73;100.00;54309.19;5039419;28;20194;-69
2023/06/17 01:46:19;;;;;;;66.53;38.00;;;;;;;-144.73;100.00;54333.81;5038111;28;20024;-69
2023/06/17 01:48:45;;;;;;;74.80;39.30;;;;;;;-144.73;100.00;54313.28;5037066;28;20029;-71
2023/06/17 01:51:10;;;;;;;85.50;40.58;;;;;;;-144.73;100.00;54321.50;5037361;28;20013;-69
2023/06/17 01:53:36;;;;;;;80.50;40.53;;;;;;;-144.73;100.00;54346.13;5069274;28;20448;-70
2023/06/17 01:56:01;;;;;;;94.10;46.67;;;;;;;-144.73;100.00;54327.66;5037254;28;20021;-69
2023/06/17 01:58:26;;;;;;;70.43;38.40;;;;;;;-144.73;100.00;54313.28;5036419;28;20085;-69
2023/06/17 02:00:52;;;;;;;99.93;49.50;;;;;;;-144.73;100.00;54362.53;5036324;28;20070;-69
2023/06/17 02:03:17;;;;;;;84.85;42.85;;;;;;;-144.73;100.00;54327.66;5035926;28;20040;-70
2023/06/17 02:05:43;;;;;;;73.88;40.55;;;;;;;-144.73;100.00;54309.19;5046157;28;20020;-69
2023/06/17 02:08:09;;;;;;;88.05;42.03;;;;;;;-144.73;100.00;54315.34;5056340;28;20035;-69
2023/06/17 02:10:35;;;;;;;89.40;44.17;;;;;;;-144.73;100.00;54325.59;5016827;28;20030;-68
2023/06/17 02:13:03;;;;;;;68.15;38.75;;;;;;;-144.73;100.00;54358.44;5035890;28;20106;-69
2023/06/17 02:15:29;;;;;;;77.10;41.13;;;;;;;-144.73;100.00;54342.03;5031397;28;20116;-69
2023/06/17 02:17:55;;;;;;;69.70;38.45;;;;;;;-144.73;100.00;54333.81;5032818;28;20115;-69
2023/06/17 02:20:20;;;;;;;75.50;39.83;;;;;;;-144.73;100.00;54346.13;5017846;28;20064;-68
2023/06/17 02:22:46;;;;;;;72.78;36.67;;;;;;;-144.73;100.00;54313.28;5046348;28;20041;-68
2023/06/17 02:25:11;;;;;;;73.72;40.22;;;;;;;-144.73;100.00;54329.72;5037713;28;20025;-69
2023/06/17 02:27:36;;;;;;;66.07;34.42;;;;;;;-144.73;100.00;54321.50;5036131;28;20036;-69
2023/06/17 02:30:02;;;;;;;71.75;36.05;;;;;;;-144.73;100.00;54298.91;5050158;28;20025;-69
2023/06/17 02:32:27;;;;;;;74.10;39.50;;;;;;;-144.73;100.00;54309.19;5044011;28;20040;-69
2023/06/17 02:34:54;;;;;;;71.15;39.13;;;;;;;-144.73;100.00;54278.41;5053605;28;20021;-69
2023/06/17 02:37:19;;;;;;;72.22;42.17;;;;;;;-144.73;100.00;54321.50;5038291;28;20029;-68
2023/06/17 02:39:45;;;;;;;75.90;39.50;;;;;;;-144.73;100.00;54350.22;5053572;28;20115;-69
2023/06/17 02:42:11;;;;;;;59.55;36.05;;;;;;;-144.73;100.00;54284.56;5053263;28;20057;-68
2023/06/17 02:44:37;;;;;;;74.75;38.47;;;;;;;-144.73;100.00;54354.34;5036870;28;20020;-68
2023/06/17 02:47:02;;;;;;;75.80;41.58;;;;;;;-144.73;100.00;54337.91;5048691;28;20028;-68
2023/06/17 02:49:28;;;;;;;78.45;41.33;;;;;;;-144.73;100.00;54342.03;5042759;28;20107;-68
2023/06/17 02:51:53;;;;;;;73.13;41.85;;;;;;;-144.73;100.00;54366.66;5027256;28;20036;-69
2023/06/17 02:54:19;;;;;;;71.13;38.85;;;;;;;-144.73;100.00;54342.03;5017599;28;20075;-70
2023/06/17 02:56:44;;;;;;;70.80;38.03;;;;;;;-144.73;100.00;54333.81;5018017;28;20061;-68
2023/06/17 02:59:10;;;;;;;61.22;36.30;;;;;;;-144.73;100.00;54337.91;5053654;28;20036;-68
2023/06/17 03:01:42;;;;;;;75.80;38.53;;;;;;;-144.73;100.00;54321.50;5038654;28;20051;-69
2023/06/17 03:04:09;;;;;;;79.82;44.28;;;;;;;-144.73;100.00;54350.22;5038860;28;20021;-68
2023/06/17 03:06:35;;;;;;;78.68;42.13;;;;;;;-144.73;100.00;54325.59;5037914;28;20167;-68
2023/06/17 03:09:03;;;;;;;86.95;43.92;;;;;;;-144.73;100.00;54333.81;5038396;28;20021;-69
2023/06/17 03:11:29;;;;;;;81.07;43.80;;;;;;;-144.73;100.00;54370.75;5038601;28;20039;-67
2023/06/17 03:13:55;;;;;;;82.05;42.55;;;;;;;-144.73;100.00;54329.72;5039354;28;20028;-69
2023/06/17 03:16:23;;;;;;;83.30;45.38;;;;;;;-144.73;100.00;54323.53;5045261;28;20013;-68
2023/06/17 03:18:48;;;;;;;75.13;39.72;;;;;;;-144.73;100.00;54321.50;5038811;28;20045;-69
2023/06/17 03:21:14;;;;;;;77.43;38.28;;;;;;;-144.73;100.00;54342.03;5045559;28;20143;-69
2023/06/17 03:23:40;;;;;;;63.90;35.83;;;;;;;-144.73;100.00;54354.34;5039319;28;20041;-69
2023/06/17 03:26:06;;;;;;;73.80;38.75;;;;;;;-144.73;100.00;54321.50;5039814;28;20013;-69
2023/06/17 03:28:31;;;;;;;66.78;37.80;;;;;;;-144.73;100.00;54333.81;5038349;28;20070;-68
2023/06/17 03:30:57;;;;;;;73.05;42.33;;;;;;;-144.73;100.00;54342.03;5039372;28;20013;-69
2023/06/17 03:33:22;;;;;;;81.15;41.80;;;;;;;-144.73;100.00;54350.22;5037903;28;20036;-69
2023/06/17 03:35:48;;;;;;;71.05;41.50;;;;;;;-144.73;100.00;54397.44;5059176;28;20097;-69
2023/06/17 03:38:13;;;;;;;80.55;41.50;;;;;;;-144.73;100.00;54346.13;5055135;28;20090;-69
2023/06/17 03:40:39;;;;;;;77.38;42.45;;;;;;;-144.73;100.00;54362.53;5046305;28;20567;-69
2023/06/17 03:43:04;;;;;;;78.30;44.75;;;;;;;-144.73;100.00;54333.81;5037556;28;20055;-69
2023/06/17 03:45:30;;;;;;;74.78;43.20;;;;;;;-144.73;100.00;54362.53;5039112;28;20029;-69
2023/06/17 03:47:57;;;;;;;70.85;38.72;;;;;;;-144.73;100.00;54346.13;5052671;28;20029;-69
2023/06/17 03:50:22;;;;;;;76.80;43.55;;;;;;;-144.73;100.00;54315.34;5039621;28;20021;-69
2023/06/17 03:52:48;;;;;;;71.20;42.42;;;;;;;-144.73;100.00;54313.28;5039302;28;20044;-68
2023/06/17 03:55:13;;;;;;;68.28;37.63;;;;;;;-144.73;100.00;54337.91;5039391;28;20044;-69
2023/06/17 03:57:40;;;;;;;70.40;40.42;;;;;;;-144.73;100.00;54391.28;5047200;28;20033;-68
2023/06/17 04:00:06;;;;;;;76.88;43.60;;;;;;;-144.73;100.00;54335.88;5050124;28;20032;-70
2023/06/17 04:02:32;;;;;;;86.90;44.97;;;;;;;-144.73;100.00;54387.19;5038581;28;20033;-69
2023/06/17 04:05:00;;;;;;;73.82;42.05;;;;;;;-144.73;100.00;54325.59;5039588;28;20017;-69
2023/06/17 04:07:27;;;;;;;69.60;43.25;;;;;;;-144.73;100.00;54350.22;5046325;28;20032;-69
2023/06/17 04:09:53;;;;;;;83.38;46.95;;;;;;;-144.73;100.00;54342.03;5039658;28;20027;-69
2023/06/17 04:12:19;;;;;;;78.22;44.75;;;;;;;-144.73;100.00;54350.22;5038698;28;20037;-68
2023/06/17 04:14:44;;;;;;;73.28;43.15;;;;;;;-144.73;100.00;54358.44;5056012;28;20109;-68
2023/06/17 04:17:10;;;;;;;74.68;42.92;;;;;;;-144.73;100.00;54350.22;5039685;28;20036;-69
2023/06/17 04:19:38;;;;;;;66.93;40.65;;;;;;;-144.73;100.00;54333.81;5038914;28;20040;-69
2023/06/17 04:22:06;;;;;;;68.90;41.55;;;;;;;-144.73;100.00;54378.97;5053256;28;20040;-69
2023/06/17 04:24:32;;;;;;;58.55;35.53;;;;;;;-144.73;100.00;54352.28;5059452;28;20016;-69
2023/06/17 04:26:58;;;;;;;62.80;40.42;;;;;;;-144.73;100.00;54391.28;5045702;28;20025;-69
2023/06/17 04:29:24;;;;;;;72.60;39.67;;;;;;;-144.73;100.00;54354.34;5044147;28;20044;-69
2023/06/17 04:31:50;;;;;;;64.45;38.45;;;;;;;-144.73;100.00;54350.22;5059741;28;20032;-70
2023/06/17 04:34:21;;;;;;;72.05;39.17;;;;;;;-144.73;100.00;54325.59;5059342;28;20088;-69
2023/06/17 04:36:56;;;;;;;74.47;39.10;;;;;;;-144.73;100.00;54354.34;5056048;28;20028;-71
2023/06/17 04:39:23;;;;;;;74.00;39.40;;;;;;;-144.73;100.00;54346.13;5056153;28;20044;-70
2023/06/17 04:41:50;;;;;;;76.80;38.55;;;;;;;-144.73;100.00;54346.13;5055757;28;20041;-71
2023/06/17 04:44:15;;;;;;;63.63;36.65;;;;;;;-144.73;100.00;54397.44;5050427;28;20025;-71
2023/06/17 04:46:41;;;;;;;61.33;33.97;;;;;;;-144.73;100.00;54383.06;5055566;28;20027;-69
2023/06/17 04:49:06;;;;;;;62.72;34.92;;;;;;;-144.73;100.00;54305.06;5043336;28;20028;-69
2023/06/17 04:51:37;;;;;;;62.78;33.85;;;;;;;-144.73;100.00;54333.81;5054255;28;20049;-69
2023/06/17 04:54:04;;;;;;;62.65;36.50;;;;;;;-144.73;100.00;54374.84;5039008;28;20013;-69
2023/06/17 04:56:30;;;;;;;69.38;36.10;;;;;;;-144.73;100.00;54350.22;5036872;28;20035;-69
2023/06/17 04:58:56;;;;;;;66.22;34.45;;;;;;;-144.73;100.00;54333.81;5038366;28;20025;-70
2023/06/17 05:01:21;;;;;;;61.05;34.95;;;;;;;-144.73;100.00;54329.72;5038599;28;20025;-70
2023/06/17 05:03:47;;;;;;;59.33;33.75;;;;;;;-144.73;100.00;54350.22;5037804;28;20079;-70
2023/06/17 05:06:12;;;;;;;58.28;33.90;;;;;;;-144.73;100.00;54370.75;5038594;28;20028;-70
2023/06/17 05:08:37;;;;;;;55.35;31.38;;;;;;;-144.73;100.00;54342.03;5037266;28;20549;-70
2023/06/17 05:11:03;;;;;;;51.72;31.67;;;;;;;-144.73;100.00;54350.22;5039301;28;20543;-70
2023/06/17 05:13:28;;;;;;;56.13;32.03;;;;;;;-144.73;100.00;54374.84;5040287;28;20499;-70
2023/06/17 05:15:53;;;;;;;71.75;33.92;;;;;;;-144.73;100.00;54325.59;5040690;28;20487;-70
2023/06/17 05:18:19;;;;;;;58.70;32.92;;;;;;;-144.73;100.00;54292.75;5040497;28;20044;-70
2023/06/17 05:20:44;;;;;;;43.22;29.15;;;;;;;-144.73;100.00;54300.97;5039975;28;20108;-69
2023/06/17 05:23:09;;;;;;;60.60;30.73;;;;;;;-144.73;100.00;54321.50;5039474;28;20083;-69
2023/06/17 05:25:35;;;;;;;56.60;33.33;;;;;;;-144.73;100.00;54337.91;5039721;28;20089;-70
2023/06/17 05:28:00;;;;;;;56.78;31.77;;;;;;;-144.73;100.00;54321.50;5039091;28;20055;-70
2023/06/17 05:30:26;;;;;;;60.03;32.30;;;;;;;-144.73;100.00;54313.28;5040096;28;20028;-70
2023/06/17 05:32:51;;;;;;;60.17;34.08;;;;;;;-144.73;100.00;54366.66;5056861;28;20040;-71
2023/06/17 05:35:17;;;;;;;55.70;31.48;;;;;;;-144.73;100.00;54313.28;5057965;28;20059;-70
2023/06/17 05:37:42;;;;;;;67.20;34.42;;;;;;;-144.73;100.00;54329.72;5040980;28;20071;-70
2023/06/17 05:40:08;;;;;;;58.78;32.78;;;;;;;-144.73;100.00;54374.84;5040931;28;20024;-69
2023/06/17 05:42:33;;;;;;;64.25;35.63;;;;;;;-144.73;100.00;54342.03;5039466;28;20061;-69
2023/06/17 05:44:58;;;;;;;53.20;33.50;;;;;;;-144.73;100.00;54317.38;5042597;28;20044;-70
2023/06/17 05:47:24;;;;;;;61.95;36.33;;;;;;;-144.73;100.00;54360.50;5042806;28;20036;-69
2023/06/17 05:49:50;;;;;;;63.83;33.88;;;;;;;-144.73;100.00;54292.75;5058149;28;20176;-70
2023/06/17 05:52:15;;;;;;;59.42;34.55;;;;;;;-144.73;100.00;54374.84;5051973;28;20171;-69
2023/06/17 05:54:40;;;;;;;55.97;31.92;;;;;;;-144.73;100.00;54387.19;5056884;28;20021;-70
2023/06/17 05:57:06;;;;;;;58.83;34.30;;;;;;;-144.73;100.00;54395.38;5039917;28;20136;-70
2023/06/17 05:59:31;;;;;;;56.88;34.65;;;;;;;-144.73;100.00;54366.66;5057175;28;20033;-68
2023/06/17 06:01:57;;;;;;;63.55;34.83;;;;;;;-144.73;100.00;54366.66;5040717;28;20052;-70
2023/06/17 06:04:22;;;;;;;63.10;35.67;;;;;;;-144.73;100.00;54378.97;5040127;28;20051;-69
2023/06/17 06:06:48;;;;;;;65.32;37.45;;;;;;;-144.73;100.00;54378.97;5056569;28;20064;-74
2023/06/17 06:09:13;;;;;;;74.18;36.25;;;;;;;-144.73;100.00;54337.91;5046124;28;20162;-69
2023/06/17 06:11:39;;;;;;;64.43;36.47;;;;;;;-144.73;100.00;54366.66;5040233;28;20014;-70
2023/06/17 06:14:04;;;;;;;55.40;32.88;;;;;;;-144.73;100.00;54350.22;5041662;28;20043;-72
2023/06/17 06:16:29;;;;;;;69.03;38.80;;;;;;;-144.73;100.00;54352.28;5046959;28;20024;-71
2023/06/17 06:18:55;;;;;;;72.60;37.30;;;;;;;-144.73;100.00;54362.53;5057026;28;20032;-70
2023/06/17 06:21:20;;;;;;;68.53;36.72;;;;;;;-144.73;100.00;54296.88;5052778;28;20024;-71
2023/06/17 06:23:45;;;;;;;64.68;35.72;;;;;;;-144.73;100.00;54354.34;5048322;28;20045;-70
2023/06/17 06:26:11;;;;;;;65.28;35.75;;;;;;;-144.73;100.00;54325.59;5055880;28;20020;-70
2023/06/17 06:28:36;;;;;;;64.85;36.13;;;;;;;-144.73;100.00;54360.50;5041482;28;20048;-71
2023/06/17 06:31:03;;;;;;;66.82;36.28;;;;;;;-144.73;100.00;54352.28;5041059;28;20182;-70
2023/06/17 06:33:28;;;;;;;74.20;36.78;;;;;;;-144.73;100.00;54329.72;5041179;28;20052;-70
2023/06/17 06:35:54;;;;;;;64.72;38.05;;;;;;;-144.73;100.00;54325.59;5041570;28;20051;-70
2023/06/17 06:38:19;;;;;;;71.45;38.13;;;;;;;-144.73;100.00;54354.34;5045270;28;20527;-71
2023/06/17 06:40:45;;;;;;;69.38;36.75;;;;;;;-144.73;100.00;54366.66;5039967;28;20021;-71
2023/06/17 06:43:10;;;;;;;65.95;37.22;;;;;;;-144.73;100.00;54362.53;5040669;28;20047;-71
2023/06/17 06:45:36;;;;;;;62.65;35.40;;;;;;;-144.73;100.00;54354.34;5040909;28;20048;-71
2023/06/17 06:48:01;;;;;;;75.28;35.85;;;;;;;-144.73;100.00;54315.34;5040819;28;20086;-71
2023/06/17 06:50:26;;;;;;;68.80;35.80;;;;;;;-144.73;100.00;54350.22;5042848;28;20025;-71
2023/06/17 06:52:52;;;;;;;62.88;35.92;;;;;;;-144.73;100.00;54337.91;5040155;28;20033;-71
2023/06/17 06:55:17;;;;;;;60.28;34.40;;;;;;;-144.73;100.00;54374.84;5046217;28;20154;-71
2023/06/17 06:57:42;;;;;;;64.55;38.28;;;;;;;-144.73;100.00;54321.50;5057097;28;20041;-71
2023/06/17 07:00:11;;;;;;;70.72;36.15;;;;;;;-144.73;100.00;54350.22;5056841;28;20029;-72
2023/06/17 07:02:37;;;;;;;61.17;36.67;;;;;;;-144.73;100.00;54354.34;5044350;28;20068;-70
2023/06/17 07:05:04;;;;;;;61.17;36.53;;;;;;;-144.73;100.00;54313.28;5050132;28;20453;-72
2023/06/17 07:07:30;;;;;;;65.22;35.60;;;;;;;-144.73;100.00;54354.34;5051687;28;20041;-70
2023/06/17 07:09:55;;;;;;;70.72;40.33;;;;;;;-144.73;100.00;54362.53;5050942;28;20024;-69
2023/06/17 07:12:24;;;;;;;68.78;37.17;;;;;;;-144.73;100.00;54321.50;5040699;28;20055;-72
2023/06/17 07:14:49;;;;;;;62.00;34.95;;;;;;;-144.73;100.00;54317.38;5047477;28;20459;-71
2023/06/17 07:17:15;;;;;;;65.28;34.47;;;;;;;-144.73;100.00;54354.34;5040404;28;20060;-72
2023/06/17 07:19:40;;;;;;;70.97;37.90;;;;;;;-144.73;100.00;54342.03;5048012;28;20120;-71
2023/06/17 07:22:07;;;;;;;55.78;34.63;;;;;;;-144.73;100.00;54329.72;5043080;28;20045;-71
2023/06/17 07:24:33;;;;;;;53.95;33.05;;;;;;;-144.73;100.00;54329.72;5014335;28;20052;-71
2023/06/17 07:26:59;;;;;;;54.13;32.13;;;;;;;-144.73;100.00;54321.50;5040657;28;20029;-72
2023/06/17 07:29:25;;;;;;;58.80;32.85;;;;;;;-144.73;100.00;54315.34;5041257;28;20033;-71
2023/06/17 07:31:50;;;;;;;55.13;34.05;;;;;;;-144.73;100.00;54344.06;5038746;28;20021;-71
2023/06/17 07:34:15;;;;;;;55.40;32.35;;;;;;;-144.73;100.00;54337.91;5035897;28;20437;-71
2023/06/17 07:36:41;;;;;;;55.10;32.78;;;;;;;-144.73;100.00;54378.97;5043427;28;20029;-71
2023/06/17 07:39:07;;;;;;;55.08;33.25;;;;;;;-144.73;100.00;54376.91;5041531;28;20036;-72
2023/06/17 07:41:33;;;;;;;60.38;34.42;;;;;;;-144.73;100.00;54350.22;5037656;28;20028;-71
2023/06/17 07:43:58;;;;;;;65.47;35.42;;;;;;;-144.73;100.00;54370.75;5038959;28;20522;-71
2023/06/17 07:46:23;;;;;;;49.90;30.42;;;;;;;-144.73;100.00;54366.66;5038213;28;20108;-71
2023/06/17 07:48:49;;;;;;;47.40;27.48;;;;;;;-144.73;100.00;54313.28;5036083;28;20435;-71
2023/06/17 07:51:14;;;;;;;58.80;33.17;;;;;;;-144.73;100.00;54358.44;5033723;28;20158;-71
2023/06/17 07:53:40;;;;;;;54.40;30.48;;;;;;;-144.73;100.00;54321.50;5061942;28;20507;-70
2023/06/17 07:56:05;;;;;;;47.88;27.83;;;;;;;-144.73;100.00;54348.19;5051764;28;20013;-71
2023/06/17 07:58:31;;;;;;;45.38;25.30;;;;;;;-144.73;100.00;54309.19;5034752;28;20498;-71
2023/06/17 08:00:56;;;;;;;45.50;25.88;;;;;;;-144.73;100.00;54329.72;5037750;28;20013;-71
2023/06/17 08:03:22;;;;;;;46.25;29.35;;;;;;;-144.73;100.00;54333.81;5035738;28;20021;-69
2023/06/17 08:05:48;;;;;;;56.33;30.77;;;;;;;-144.73;100.00;54342.03;5035167;28;20124;-71
2023/06/17 08:08:14;;;;;;;49.78;30.67;;;;;;;-144.73;100.00;54346.13;5052063;28;20083;-71
2023/06/17 08:10:43;;;;;;;49.40;27.70;;;;;;;-144.73;100.00;54313.28;5034834;28;20061;-71
2023/06/17 08:13:08;;;;;;;48.88;26.63;;;;;;;-144.73;100.00;54329.72;5034177;28;20090;-71
2023/06/17 08:15:35;;;;;;;68.72;32.70;;;;;;;-144.73;100.00;54313.28;5035579;28;20044;-72
2023/06/17 08:18:03;;;;;;;53.03;29.52;;;;;;;-144.73;100.00;54350.22;5033024;28;20058;-70
2023/06/17 08:32:37;;;;;;;39.53;24.67;;;;;;;-144.73;100.00;54296.88;5080706;27;20121;-72
2023/06/17 08:35:06;;;;;;;43.42;26.38;;;;;;;-144.73;97.98;54325.59;4985749;28;1314188;-71
2023/06/17 08:37:34;;;;;;;41.15;25.85;;;;;;;-144.73;100.00;54313.28;5016337;28;20125;-71
2023/06/17 08:39:59;;;;;;;57.58;28.92;;;;;;;-144.73;100.00;54317.38;5019790;28;20049;-71
2023/06/17 08:42:28;;;;;;;41.58;27.02;;;;;;;-144.73;98.02;54333.81;5013320;28;20088;-70
2023/06/17 08:44:55;;;;;;;42.05;27.70;;;;;;;-144.73;97.75;54333.81;5002125;28;20052;-72
2023/06/17 08:47:20;;;;;;;53.95;28.85;;;;;;;-144.73;96.01;54296.88;5007524;28;20058;-71
2023/06/17 08:49:46;;;;;;;41.40;26.10;;;;;;;-144.73;96.89;54305.06;5022108;28;20057;-72
2023/06/17 08:52:13;;;;;;;60.78;27.30;;;;;;;-144.73;100.00;54321.50;5018147;28;20061;-70
2023/06/17 08:54:40;;;;;;;42.35;23.83;;;;;;;-144.73;97.76;54321.50;5011211;28;20104;-71
2023/06/17 08:57:11;;;;;;;45.45;24.27;;;;;;;-144.73;93.71;54315.34;5009863;28;20037;-71
2023/06/17 08:59:36;;;;;;;33.60;23.92;;;;;;;-144.73;92.06;54325.59;5026433;28;20030;-69
2023/06/17 09:02:03;;;;;;;37.30;24.17;;;;;;;-144.73;89.04;54294.81;5008506;28;20045;-70
2023/06/17 09:04:29;;;;;;;38.17;21.33;;;;;;;-144.73;86.20;54317.38;5010896;28;20037;-71
2023/06/17 09:06:55;;;;;;;39.25;24.33;;;;;;;-144.73;84.45;54259.91;5021225;28;20056;-70
2023/06/17 09:09:20;;;;;;;36.80;21.67;;;;;;;-144.73;82.16;54251.72;5019971;28;20053;-71
2023/06/17 09:11:50;;;;;;;33.00;21.55;;;;;;;-144.73;79.16;54305.06;4994423;28;20508;-70
2023/06/17 09:14:18;;;;;;;34.90;21.98;;;;;;;-144.73;82.53;54303.03;5017667;28;20033;-70
2023/06/17 09:16:44;;;;;;;34.97;22.30;;;;;;;-144.73;86.27;54337.91;5020543;28;20057;-70
2023/06/17 09:19:10;;;;;;;32.38;22.30;;;;;;;-144.73;87.87;54317.38;5025022;28;20019;-70
2023/06/17 09:21:39;;;;;;;37.08;21.40;;;;;;;-144.73;88.04;54354.34;5038511;28;20021;-71
2023/06/17 09:24:06;;;;;;;29.42;20.40;;;;;;;-144.73;87.92;54313.28;5020737;28;20032;-69
2023/06/17 09:26:33;;;;;;;33.45;22.60;;;;;;;-144.73;88.28;54296.88;5023671;28;20017;-69
2023/06/17 09:29:03;;;;;;;36.88;22.38;;;;;;;-144.73;89.34;54288.66;5016712;28;20029;-68
2023/06/17 09:31:29;;;;;;;32.30;21.80;;;;;;;-144.73;86.41;54243.50;5018658;28;20088;-69
2023/06/17 09:33:56;;;;;;;32.00;22.55;;;;;;;-144.73;85.39;54288.66;5004635;28;20026;-70
2023/06/17 09:36:22;;;;;;;34.60;20.05;;;;;;;-144.73;88.52;54298.91;4989139;28;20492;-69
2023/06/17 09:38:50;;;;;;;35.90;20.25;;;;;;;-144.73;86.85;54325.59;5002838;28;20037;-69
2023/06/17 09:41:16;;;;;;;38.90;22.15;;;;;;;-144.73;89.79;54333.81;5007459;28;20026;-71
2023/06/17 09:43:47;;;;;;;37.67;22.27;;;;;;;-144.73;86.33;54292.75;5011234;28;20036;-70
2023/06/17 09:46:13;;;;;;;33.72;21.48;;;;;;;-144.73;81.31;54305.06;5009094;28;20022;-69
2023/06/17 09:48:39;;;;;;;36.67;19.88;;;;;;;-144.73;80.61;54280.44;5008284;28;20068;-69
2023/06/17 09:51:09;;;;;;;33.97;18.38;;;;;;;-144.73;78.18;54261.97;5029665;28;20048;-69
2023/06/17 09:53:35;;;;;;;29.00;18.50;;;;;;;-144.73;75.31;54280.44;5012019;28;20072;-69
2023/06/17 09:56:01;;;;;;;29.23;16.98;;;;;;;-144.73;76.72;54282.50;5013757;28;20017;-70
2023/06/17 09:58:31;;;;;;;32.58;19.38;;;;;;;-144.73;77.93;54337.91;5007423;28;20040;-70
2023/06/17 10:00:57;;;;;;;27.45;15.63;;;;;;;-144.73;76.62;54305.06;5009293;28;20014;-70
2023/06/17 10:03:23;;;;;;;34.53;16.10;;;;;;;-144.73;72.20;54259.91;5009365;28;20041;-70
2023/06/17 10:06:00;;;;;;;29.63;20.00;;;;;;;-144.73;72.79;54276.34;5014104;28;20029;-69
2023/06/17 10:08:27;;;;;;;30.67;19.00;;;;;;;-144.73;72.37;54255.81;5010830;28;20116;-69
2023/06/17 10:10:53;;;;;;;34.75;16.48;;;;;;;-144.73;70.11;54214.78;5011091;28;20097;-71
2023/06/17 10:13:20;;;;;;;29.15;17.85;;;;;;;-144.73;68.33;54243.50;5029095;28;20536;-70
2023/06/17 10:15:48;;;;;;;23.23;14.88;;;;;;;-144.73;68.98;54243.50;5030323;28;20021;-70
2023/06/17 10:18:15;;;;;;;24.50;14.98;;;;;;;-144.73;68.65;54214.78;5028841;28;20033;-71
2023/06/17 10:20:43;;;;;;;17.63;13.00;;;;;;;-144.73;67.77;54218.88;5029930;28;20033;-70
2023/06/17 10:23:09;;;;;;;37.13;16.17;;;;;;;-144.73;66.36;54255.81;5010366;28;20072;-71
2023/06/17 10:25:36;;;;;;;27.58;13.57;;;;;;;-144.73;65.56;54276.34;5012660;28;20065;-68
2023/06/17 10:28:03;;;;;;;21.42;13.50;;;;;;;-144.73;66.06;54255.81;5003482;28;20041;-70
2023/06/17 10:30:29;;;;;;;23.50;12.93;;;;;;;-144.73;61.81;54276.34;5005384;28;20017;-70
2023/06/17 10:32:59;;;;;;;18.27;11.40;;;;;;;-144.73;59.11;54235.28;5013396;28;20120;-69
2023/06/17 10:35:41;;;;;;;20.37;13.60;;;;;;;-144.73;59.98;54313.28;5011910;28;20120;-70
2023/06/17 10:38:08;;;;;;;25.70;13.27;;;;;;;-144.73;59.99;54235.28;5012642;28;20108;-70
2023/06/17 10:40:36;;;;;;;17.48;12.38;;;;;;;-144.73;58.81;54315.34;5011333;28;20025;-69
2023/06/17 10:43:01;;;;;;;24.58;13.80;;;;;;;-144.73;60.47;54276.34;5011374;28;20038;-70
2023/06/17 10:45:32;;;;;;;21.15;12.20;;;;;;;-144.73;60.97;54288.66;5012632;28;20108;-70
2023/06/17 10:48:14;;;;;;;21.77;12.15;;;;;;;-144.73;60.45;54342.03;5013503;28;20072;-70
2023/06/17 10:50:40;;;;;;;21.33;12.68;;;;;;;-144.73;55.68;54235.28;5013653;28;20025;-70
2023/06/17 10:53:06;;;;;;;33.15;22.05;;;;;;;-144.73;53.85;54231.19;5013642;28;20045;-70
2023/06/17 10:55:31;;;;;;;16.13;11.07;;;;;;;-144.73;53.42;54222.97;5013718;28;20024;-70
2023/06/17 10:57:57;;;;;;;17.35;11.45;;;;;;;-144.73;54.78;54247.59;5013198;28;20113;-70
2023/06/17 11:00:23;;;;;;;19.60;12.20;;;;;;;-144.73;53.88;54276.34;5010369;28;20091;-71
2023/06/17 11:02:48;;;;;;;20.95;11.68;;;;;;;-144.73;52.27;54210.66;5011911;28;20088;-71
2023/06/17 11:05:16;;;;;;;19.60;11.15;;;;;;;-144.73;52.75;54247.59;5012728;28;20026;-71